Time;durP1;ratioP1;P1;durP2;ratioP2;P2;SDS_P1;SDS_P2;PMS_P1;PMS_P2;Temp;Humidity;BMP_temperature;BMP_pressure;BME280_temperature;BME280_humidity;BME280_pressure;Samples;Min_cycle;Max_cycle;Signal;HPM_P1;HPM_P2
2021/01/30 06:15:38;;;;;;;1.30;1.30;;;0.30;99.90;;;;;;6180373;22;21467;-77
2021/01/30 06:18:26;;;;;;;1.30;1.30;;;0.30;99.90;;;;;;6216833;23;20178;-78
2021/01/30 06:20:57;;;;;;;1.30;1.30;;;0.30;99.90;;;;;;6216703;23;20233;-77
2021/01/30 06:23:24;;;;;;;1.40;1.40;;;0.40;99.90;;;;;;6215855;23;20228;-77
2021/01/30 06:25:53;;;;;;;1.20;1.20;;;0.40;99.90;;;;;;6215699;23;20198;-77
2021/01/30 06:28:24;;;;;;;1.30;1.30;;;0.30;99.90;;;;;;6215392;23;20553;-76
2021/01/30 06:30:55;;;;;;;1.20;1.20;;;0.30;99.90;;;;;;6216418;23;20166;-76
2021/01/30 06:33:27;;;;;;;1.20;1.20;;;0.30;99.90;;;;;;6215629;23;20504;-76
2021/01/30 06:35:57;;;;;;;1.20;1.20;;;0.40;99.90;;;;;;6215280;23;20256;-77
2021/01/30 06:38:32;;;;;;;1.20;1.20;;;0.40;99.90;;;;;;6215235;23;20597;-77
2021/01/30 06:41:03;;;;;;;1.30;1.30;;;0.30;99.90;;;;;;6215413;23;20166;-76
2021/01/30 06:43:33;;;;;;;1.30;1.30;;;0.40;99.90;;;;;;6214932;23;20625;-76
2021/01/30 06:46:08;;;;;;;1.20;1.20;;;0.40;99.90;;;;;;6215016;23;20594;-76
2021/01/30 06:48:39;;;;;;;1.20;1.20;;;0.30;99.90;;;;;;6214631;23;20537;-77
2021/01/30 06:51:24;;;;;;;1.40;1.40;;;0.40;99.90;;;;;;6215152;23;20158;-76
2021/01/30 06:53:51;;;;;;;1.30;1.30;;;0.50;99.90;;;;;;6215051;23;20198;-77
2021/01/30 06:56:22;;;;;;;1.30;1.30;;;0.40;99.90;;;;;;6214971;23;20221;-75
2021/01/30 06:58:51;;;;;;;1.40;1.40;;;0.50;99.90;;;;;;6214473;23;20624;-77
2021/01/30 07:01:23;;;;;;;1.20;1.20;;;0.40;99.90;;;;;;6216497;23;20560;-79
2021/01/30 07:04:10;;;;;;;1.20;1.20;;;0.40;99.90;;;;;;6215867;23;20194;-77
2021/01/30 07:06:47;;;;;;;1.40;1.40;;;0.40;99.90;;;;;;6214102;23;20202;-74
2021/01/30 07:09:38;;;;;;;1.40;1.40;;;0.40;99.90;;;;;;6214374;23;20499;-75
2021/01/30 07:12:13;;;;;;;1.50;1.50;;;0.40;99.90;;;;;;6213936;23;20182;-76
2021/01/30 07:15:00;;;;;;;1.40;1.40;;;0.30;99.90;;;;;;6214378;23;20495;-73
2021/01/30 07:17:55;;;;;;;1.30;1.30;;;0.40;99.90;;;;;;6214540;23;20213;-75
2021/01/30 07:20:33;;;;;;;1.30;1.30;;;0.30;99.90;;;;;;6213944;23;20162;-74
2021/01/30 07:23:06;;;;;;;1.30;1.30;;;0.20;99.90;;;;;;6214144;23;20601;-74
2021/01/30 07:25:44;;;;;;;1.30;1.30;;;0.20;99.90;;;;;;6214621;23;20514;-73
2021/01/30 07:28:22;;;;;;;1.30;1.30;;;0.20;99.90;;;;;;6214343;23;20162;-73
2021/01/30 07:30:57;;;;;;;1.33;1.33;;;0.20;99.90;;;;;;6214395;23;20208;-74
2021/01/30 07:33:31;;;;;;;1.20;1.20;;;0.30;99.90;;;;;;6214530;23;20182;-73
2021/01/30 07:36:04;;;;;;;1.10;1.10;;;0.30;99.90;;;;;;6214588;23;20249;-73
2021/01/30 07:38:40;;;;;;;1.40;1.40;;;0.30;99.90;;;;;;6214141;23;20162;-73
2021/01/30 07:41:16;;;;;;;1.40;1.40;;;0.40;99.90;;;;;;6214594;23;20161;-73
2021/01/30 07:43:50;;;;;;;1.30;1.30;;;0.30;99.90;;;;;;6214615;23;20158;-73
2021/01/30 07:46:20;;;;;;;1.40;1.40;;;0.60;99.90;;;;;;6214556;23;20194;-72
2021/01/30 07:48:53;;;;;;;1.30;1.30;;;0.40;99.90;;;;;;6214598;23;20174;-72
2021/01/30 07:51:25;;;;;;;1.40;1.40;;;0.30;99.90;;;;;;6214285;23;20166;-73
2021/01/30 07:53:52;;;;;;;1.20;1.20;;;0.30;99.90;;;;;;6214507;23;20178;-74
2021/01/30 07:56:49;;;;;;;1.30;1.30;;;0.40;99.90;;;;;;6214094;23;20301;-74
2021/01/30 07:59:29;;;;;;;1.10;1.10;;;0.40;99.90;;;;;;6215724;23;20166;-73
2021/01/30 08:02:39;;;;;;;1.33;1.33;;;0.40;99.90;;;;;;6216561;23;20166;-77
2021/01/30 08:05:21;;;;;;;1.40;1.40;;;0.30;99.90;;;;;;6188251;23;20180;-71
2021/01/30 08:07:55;;;;;;;1.20;1.20;;;0.30;99.90;;;;;;6210914;23;20162;-71
2021/01/30 08:10:32;;;;;;;1.30;1.30;;;0.30;99.90;;;;;;6215406;23;20170;-72
2021/01/30 08:13:13;;;;;;;1.47;1.47;;;0.40;99.90;;;;;;6216070;23;20178;-72
2021/01/30 08:15:47;;;;;;;1.30;1.30;;;0.40;99.90;;;;;;6214897;23;20209;-71
2021/01/30 08:18:24;;;;;;;1.60;1.60;;;0.70;99.90;;;;;;6215879;23;20166;-71
2021/01/30 08:21:01;;;;;;;1.40;1.40;;;0.50;99.90;;;;;;6215980;23;20162;-72
2021/01/30 08:23:47;;;;;;;1.20;1.20;;;0.60;99.90;;;;;;6216662;23;20532;-72
2021/01/30 08:26:21;;;;;;;1.20;1.20;;;0.50;99.90;;;;;;6216435;23;20271;-72
2021/01/30 08:28:59;;;;;;;1.30;1.30;;;0.40;99.90;;;;;;6213959;23;20162;-71
2021/01/30 08:31:35;;;;;;;1.50;1.50;;;0.50;99.90;;;;;;6217806;23;20158;-75
2021/01/30 08:34:10;;;;;;;1.30;1.30;;;0.40;99.90;;;;;;6217166;23;20663;-74
2021/01/30 08:36:40;;;;;;;1.27;1.27;;;0.30;99.90;;;;;;6217328;23;20252;-74
2021/01/30 08:39:19;;;;;;;1.30;1.30;;;0.30;99.90;;;;;;6216188;23;20178;-74
2021/01/30 08:41:50;;;;;;;1.30;1.30;;;0.40;99.90;;;;;;6213248;23;20600;-73
2021/01/30 08:44:36;;;;;;;1.40;1.40;;;0.20;99.90;;;;;;6215044;23;20493;-73
2021/01/30 08:47:15;;;;;;;1.30;1.30;;;0.20;99.90;;;;;;6216164;23;20198;-73
2021/01/30 08:49:58;;;;;;;1.30;1.30;;;0.30;99.90;;;;;;6216074;23;20158;-76
2021/01/30 08:52:45;;;;;;;1.20;1.20;;;0.30;99.90;;;;;;6215723;23;20216;-73
2021/01/30 08:55:47;;;;;;;1.20;1.20;;;0.40;99.90;;;;;;6216081;23;20155;-74
2021/01/30 08:58:45;;;;;;;1.37;1.37;;;0.40;99.90;;;;;;6215715;23;20161;-74
2021/01/30 09:01:45;;;;;;;1.30;1.30;;;0.40;99.90;;;;;;6216126;23;20178;-74
2021/01/30 09:04:47;;;;;;;1.40;1.40;;;0.40;99.90;;;;;;6215718;23;20231;-75
2021/01/30 09:07:34;;;;;;;1.30;1.30;;;0.60;99.90;;;;;;6215861;23;20197;-71
2021/01/30 09:10:25;;;;;;;1.40;1.40;;;0.70;99.90;;;;;;6215225;23;20174;-74
2021/01/30 09:12:54;;;;;;;1.30;1.30;;;0.90;99.90;;;;;;6215771;23;20169;-71
2021/01/30 09:23:05;;;;;;;1.50;1.50;;;0.70;99.90;;;;;;6213647;23;20161;-72
2021/01/30 09:25:43;;;;;;;1.30;1.30;;;0.70;99.90;;;;;;6215031;23;20232;-73
2021/01/30 09:28:16;;;;;;;1.40;1.40;;;1.20;99.90;;;;;;6214272;23;20185;-75
2021/01/30 09:30:51;;;;;;;1.30;1.30;;;0.80;99.90;;;;;;6215484;23;20158;-74
2021/01/30 09:33:23;;;;;;;1.20;1.20;;;1.00;99.90;;;;;;6215260;23;20182;-74
2021/01/30 09:35:53;;;;;;;1.30;1.30;;;0.90;99.90;;;;;;6214533;23;20642;-74
2021/01/30 09:38:27;;;;;;;1.67;1.67;;;0.90;99.90;;;;;;6214880;23;20546;-73
2021/01/30 09:41:11;;;;;;;1.10;1.10;;;1.10;99.90;;;;;;6214764;23;20170;-74
2021/01/30 09:43:39;;;;;;;1.30;1.30;;;1.10;99.90;;;;;;6214786;23;20158;-76
2021/01/30 09:46:11;;;;;;;1.30;1.30;;;1.40;99.90;;;;;;6214195;23;20198;-77
2021/01/30 09:48:40;;;;;;;1.30;1.30;;;1.10;99.90;;;;;;6214308;23;20502;-75
2021/01/30 09:51:09;;;;;;;1.30;1.30;;;0.90;99.90;;;;;;6214321;23;20186;-74
2021/01/30 09:53:43;;;;;;;1.30;1.30;;;1.00;99.90;;;;;;6214473;23;20178;-74
2021/01/30 09:56:12;;;;;;;1.20;1.20;;;1.20;99.90;;;;;;6213905;23;20191;-74
2021/01/30 09:58:42;;;;;;;1.20;1.20;;;1.60;99.90;;;;;;6213178;23;20162;-73
2021/01/30 10:01:25;;;;;;;1.10;1.10;;;1.10;99.90;;;;;;6214453;23;20158;-74
2021/01/30 10:03:53;;;;;;;1.40;1.40;;;1.30;99.90;;;;;;6214763;23;20161;-74
2021/01/30 10:06:28;;;;;;;1.40;1.40;;;1.30;99.90;;;;;;6214509;23;20301;-72
2021/01/30 10:09:08;;;;;;;1.20;1.20;;;1.40;99.90;;;;;;6214306;23;20158;-74
2021/01/30 10:11:36;;;;;;;1.30;1.30;;;1.30;99.90;;;;;;6220480;23;20209;-78
2021/01/30 10:14:04;;;;;;;1.30;1.30;;;1.10;99.90;;;;;;6221767;23;20668;-77
2021/01/30 10:16:31;;;;;;;1.30;1.30;;;1.20;99.90;;;;;;6223154;23;20235;-77
2021/01/30 10:19:01;;;;;;;1.30;1.30;;;1.00;99.90;;;;;;6218331;23;20233;-76
2021/01/30 10:21:32;;;;;;;1.20;1.20;;;1.00;99.90;;;;;;6217632;23;20177;-78
2021/01/30 10:24:12;;;;;;;1.30;1.30;;;1.10;99.90;;;;;;6220479;23;20209;-77
2021/01/30 10:26:39;;;;;;;1.10;1.10;;;1.20;99.90;;;;;;6219032;23;20256;-77
2021/01/30 10:29:10;;;;;;;1.20;1.20;;;1.50;99.90;;;;;;6219983;23;20178;-78
2021/01/30 10:31:54;;;;;;;1.30;1.30;;;1.10;99.90;;;;;;6219176;23;20200;-78
2021/01/30 10:34:26;;;;;;;1.30;1.30;;;0.90;99.90;;;;;;6219241;23;20183;-77
2021/01/30 10:36:59;;;;;;;1.20;1.20;;;1.00;99.90;;;;;;6217545;23;20198;-77
2021/01/30 10:39:30;;;;;;;1.20;1.20;;;1.00;99.90;;;;;;6219579;23;20162;-77
2021/01/30 10:42:05;;;;;;;1.47;1.47;;;1.20;99.90;;;;;;6218224;23;20190;-78
2021/01/30 10:44:34;;;;;;;1.33;1.33;;;1.20;99.90;;;;;;6219670;23;20173;-77
2021/01/30 10:47:03;;;;;;;1.30;1.30;;;1.20;99.90;;;;;;6218100;23;20272;-76
2021/01/30 10:49:33;;;;;;;1.20;1.20;;;0.80;99.90;;;;;;6221777;23;20245;-76
2021/01/30 10:52:08;;;;;;;1.40;1.40;;;1.10;99.90;;;;;;6219915;23;20182;-79
2021/01/30 10:54:36;;;;;;;1.30;1.30;;;1.00;99.90;;;;;;6220958;23;20181;-78
2021/01/30 10:57:26;;;;;;;1.20;1.20;;;1.10;99.90;;;;;;6227129;23;20201;-79
2021/01/30 10:59:57;;;;;;;1.30;1.30;;;1.00;99.90;;;;;;6223689;23;20197;-80
2021/01/30 11:02:41;;;;;;;1.10;1.10;;;0.90;99.90;;;;;;6215733;23;20462;-77
2021/01/30 11:05:13;;;;;;;1.30;1.30;;;1.00;99.90;;;;;;6213673;23;20165;-75
2021/01/30 11:07:43;;;;;;;1.30;1.30;;;0.90;99.90;;;;;;6213985;23;20163;-75
2021/01/30 11:10:23;;;;;;;1.30;1.30;;;0.90;99.90;;;;;;6214194;23;20247;-75
2021/01/30 11:12:51;;;;;;;1.30;1.30;;;1.00;99.90;;;;;;6213699;23;20237;-74
2021/01/30 11:15:22;;;;;;;1.20;1.20;;;1.00;99.90;;;;;;6214594;23;20574;-76
2021/01/30 11:17:49;;;;;;;1.20;1.20;;;1.10;99.90;;;;;;6214909;23;20166;-76
2021/01/30 11:20:38;;;;;;;1.30;1.30;;;1.20;99.90;;;;;;6214275;23;20170;-73
2021/01/30 11:23:05;;;;;;;1.30;1.30;;;1.10;99.90;;;;;;6214295;23;20252;-74
2021/01/30 11:25:38;;;;;;;1.40;1.40;;;1.20;99.90;;;;;;6214137;23;20194;-73
2021/01/30 11:28:05;;;;;;;1.40;1.40;;;1.10;99.90;;;;;;6213836;23;20213;-73
2021/01/30 11:30:32;;;;;;;1.20;1.20;;;1.20;99.90;;;;;;6213884;23;20178;-72
2021/01/30 11:33:04;;;;;;;1.20;1.20;;;1.30;99.90;;;;;;6219020;23;20178;-77
2021/01/30 11:35:34;;;;;;;1.20;1.20;;;1.30;99.90;;;;;;6233503;23;20585;-77
2021/01/30 11:38:04;;;;;;;1.40;1.40;;;1.40;99.90;;;;;;6225941;23;20237;-78
2021/01/30 11:40:32;;;;;;;1.30;1.30;;;1.40;99.90;;;;;;6225824;23;20188;-78
2021/01/30 11:43:01;;;;;;;1.20;1.20;;;1.50;99.90;;;;;;6225837;23;20240;-79
2021/01/30 11:45:28;;;;;;;1.40;1.40;;;1.70;99.90;;;;;;6221062;23;20661;-79
2021/01/30 11:47:55;;;;;;;1.30;1.30;;;1.60;99.90;;;;;;6220810;23;20682;-78
2021/01/30 11:50:22;;;;;;;1.20;1.20;;;1.50;99.90;;;;;;6223057;23;20178;-78
2021/01/30 11:52:49;;;;;;;1.20;1.20;;;1.70;99.90;;;;;;6223298;23;20181;-80
2021/01/30 11:55:18;;;;;;;1.10;1.10;;;1.80;99.90;;;;;;6228483;23;20194;-80
2021/01/30 11:57:46;;;;;;;1.40;1.40;;;1.70;99.90;;;;;;6225523;23;20489;-77
2021/01/30 12:00:15;;;;;;;1.43;1.43;;;1.50;99.90;;;;;;6227250;23;20185;-78
2021/01/30 12:02:43;;;;;;;1.30;1.30;;;1.60;99.90;;;;;;6223089;23;20182;-78
2021/01/30 12:05:12;;;;;;;1.10;1.10;;;1.50;99.90;;;;;;6219729;23;20201;-77
2021/01/30 12:07:40;;;;;;;1.20;1.20;;;1.50;99.90;;;;;;6219852;23;20182;-78
2021/01/30 12:10:08;;;;;;;1.27;1.27;;;1.50;99.90;;;;;;6225297;23;20633;-80
2021/01/30 12:12:35;;;;;;;1.30;1.30;;;1.60;99.90;;;;;;6216057;23;20174;-76
2021/01/30 12:15:04;;;;;;;1.33;1.33;;;1.40;99.90;;;;;;6214351;23;20209;-78
2021/01/30 12:17:34;;;;;;;1.10;1.10;;;1.60;99.90;;;;;;6223314;23;20312;-79
2021/01/30 12:20:03;;;;;;;1.10;1.10;;;1.50;99.90;;;;;;6227445;23;20170;-78
2021/01/30 12:22:30;;;;;;;1.40;1.40;;;;;;;;;;6228967;23;20185;-78
2021/01/30 12:24:58;;;;;;;1.30;1.30;;;1.60;99.90;;;;;;6228699;23;20175;-78
2021/01/30 12:27:25;;;;;;;1.30;1.30;;;1.50;99.90;;;;;;6225987;23;20194;-79
2021/01/30 12:32:29;;;;;;;1.43;1.43;;;1.60;99.90;;;;;;6124326;23;20183;-69
2021/01/30 12:34:56;;;;;;;1.20;1.20;;;1.40;99.90;;;;;;6123557;23;20220;-70
2021/01/30 12:37:23;;;;;;;1.30;1.30;;;1.30;99.90;;;;;;6123690;23;20647;-69
2021/01/30 12:39:51;;;;;;;1.10;1.10;;;1.30;99.90;;;;;;6124121;23;20239;-70
2021/01/30 12:42:17;;;;;;;1.30;1.30;;;1.30;99.90;;;;;;6095010;23;20181;-70
2021/01/30 12:44:45;;;;;;;1.40;1.40;;;;;;;;;;6095740;23;20225;-69
2021/01/30 12:47:22;;;;;;;1.20;1.20;;;1.70;99.90;;;;;;6096797;23;20181;-73
2021/01/30 12:50:04;;;;;;;1.13;1.13;;;1.50;99.90;;;;;;6096973;23;20192;-74
2021/01/30 12:52:31;;;;;;;1.30;1.30;;;1.80;99.90;;;;;;6097224;23;20659;-73
2021/01/30 12:54:58;;;;;;;1.30;1.30;;;1.80;99.90;;;;;;6096830;23;20450;-73
2021/01/30 12:57:25;;;;;;;1.10;1.10;;;1.90;99.90;;;;;;6096945;23;20181;-74
2021/01/30 12:59:52;;;;;;;1.30;1.30;;;1.60;99.90;;;;;;6096765;23;20181;-75
2021/01/30 13:02:19;;;;;;;1.20;1.20;;;1.70;99.90;;;;;;6097060;23;20181;-72
2021/01/30 13:04:46;;;;;;;1.20;1.20;;;1.70;99.90;;;;;;6096821;23;20164;-73
2021/01/30 13:07:15;;;;;;;1.13;1.13;;;1.80;99.90;;;;;;6096457;23;20180;-72
2021/01/30 13:09:41;;;;;;;1.20;1.20;;;1.80;99.90;;;;;;6096694;23;20239;-73
2021/01/30 13:12:10;;;;;;;1.20;1.20;;;1.70;99.90;;;;;;6096940;23;20208;-73
2021/01/30 13:14:38;;;;;;;1.20;1.20;;;1.60;99.90;;;;;;6096694;23;20207;-74
2021/01/30 13:17:06;;;;;;;1.20;1.20;;;1.80;99.90;;;;;;6096981;23;20181;-72
2021/01/30 13:19:33;;;;;;;1.13;1.13;;;1.90;99.90;;;;;;6096599;23;20184;-74
2021/01/30 13:22:00;;;;;;;1.30;1.30;;;2.10;99.90;;;;;;6096504;23;20252;-75
2021/01/30 13:24:28;;;;;;;1.30;1.30;;;2.10;99.90;;;;;;6096546;23;20566;-78
2021/01/30 13:27:03;;;;;;;1.30;1.30;;;2.20;99.90;;;;;;6096936;23;20161;-74
2021/01/30 13:29:31;;;;;;;1.20;1.20;;;2.20;99.90;;;;;;6096841;23;20193;-73
2021/01/30 13:31:59;;;;;;;1.30;1.30;;;2.30;99.90;;;;;;6096358;23;20706;-72
2021/01/30 13:34:26;;;;;;;1.20;1.20;;;2.30;99.90;;;;;;6095465;23;20236;-73
2021/01/30 13:36:54;;;;;;;1.20;1.20;;;2.30;99.90;;;;;;6094279;23;20212;-72
2021/01/30 13:39:22;;;;;;;1.10;1.10;;;2.20;99.90;;;;;;6094662;23;20177;-74
2021/01/30 13:41:50;;;;;;;1.20;1.20;;;2.10;99.90;;;;;;6095231;23;20430;-73
2021/01/30 13:44:18;;;;;;;1.20;1.20;;;2.10;99.90;;;;;;6095088;23;20223;-73
2021/01/30 13:46:45;;;;;;;1.30;1.30;;;2.30;99.90;;;;;;6095169;23;20177;-72
2021/01/30 13:49:13;;;;;;;1.10;1.10;;;2.10;99.90;;;;;;6095526;23;20181;-70
2021/01/30 13:51:40;;;;;;;1.20;1.20;;;2.00;99.90;;;;;;6096614;23;20258;-71
2021/01/30 13:54:07;;;;;;;1.10;1.10;;;1.80;99.90;;;;;;6095997;23;20196;-70
2021/01/30 13:56:34;;;;;;;1.23;1.23;;;1.80;99.90;;;;;;6095517;23;20184;-73
2021/01/30 13:59:01;;;;;;;1.13;1.13;;;2.30;99.90;;;;;;6096220;23;20232;-70
2021/01/30 14:01:28;;;;;;;1.20;1.20;;;2.00;99.90;;;;;;6096170;23;20196;-70
2021/01/30 14:03:55;;;;;;;1.10;1.10;;;2.10;99.90;;;;;;6096506;23;20228;-70
2021/01/30 14:06:22;;;;;;;1.43;1.43;;;1.90;99.90;;;;;;6096471;23;20239;-73
2021/01/30 14:08:49;;;;;;;1.30;1.30;;;2.00;99.90;;;;;;6095685;23;20506;-70
2021/01/30 14:11:16;;;;;;;1.30;1.30;;;1.90;99.90;;;;;;6096009;23;20248;-74
2021/01/30 14:13:43;;;;;;;1.20;1.20;;;1.90;99.90;;;;;;6096211;23;20181;-70
2021/01/30 14:16:10;;;;;;;1.10;1.10;;;1.90;99.90;;;;;;6096380;23;20169;-70
2021/01/30 14:18:37;;;;;;;1.10;1.10;;;2.10;99.90;;;;;;6095633;23;20180;-70
2021/01/30 14:21:05;;;;;;;1.00;1.00;;;2.00;99.90;;;;;;6095934;23;20259;-73
2021/01/30 14:23:32;;;;;;;1.20;1.20;;;1.90;99.90;;;;;;6095615;23;20181;-73
2021/01/30 14:25:58;;;;;;;1.10;1.10;;;2.30;99.90;;;;;;6094645;23;20287;-72
2021/01/30 14:28:25;;;;;;;1.20;1.20;;;2.20;99.90;;;;;;6095831;23;20180;-71
2021/01/30 14:30:52;;;;;;;1.10;1.10;;;2.20;99.90;;;;;;6095574;23;20216;-75
2021/01/30 14:33:22;;;;;;;1.20;1.20;;;1.80;99.90;;;;;;6096615;23;20636;-72
2021/01/30 14:35:50;;;;;;;1.30;1.30;;;1.70;99.90;;;;;;6095368;23;20586;-73
2021/01/30 14:38:18;;;;;;;1.30;1.30;;;1.80;99.90;;;;;;6095228;23;20228;-76
2021/01/30 14:40:46;;;;;;;1.27;1.27;;;1.90;99.90;;;;;;6095629;23;20197;-75
2021/01/30 14:43:15;;;;;;;1.10;1.10;;;2.00;99.90;;;;;;6094984;23;20181;-75
2021/01/30 14:45:41;;;;;;;1.20;1.20;;;2.20;99.90;;;;;;6096048;23;20177;-74
2021/01/30 14:48:10;;;;;;;1.40;1.40;;;2.20;99.90;;;;;;6095190;23;20181;-74
2021/01/30 14:50:37;;;;;;;1.17;1.17;;;1.90;99.90;;;;;;6092869;23;20671;-75
2021/01/30 14:53:06;;;;;;;1.30;1.30;;;2.10;99.90;;;;;;6095089;23;20161;-75
2021/01/30 14:55:33;;;;;;;1.33;1.33;;;1.70;99.90;;;;;;6095033;23;20252;-78
2021/01/30 14:58:02;;;;;;;1.37;1.37;;;2.00;99.90;;;;;;6095342;23;20268;-77
2021/01/30 15:00:30;;;;;;;1.20;1.20;;;2.00;99.90;;;;;;6095271;23;20252;-74
2021/01/30 15:02:57;;;;;;;1.10;1.10;;;1.60;99.90;;;;;;6095417;23;20264;-76
2021/01/30 15:05:24;;;;;;;1.40;1.40;;;1.80;99.90;;;;;;6094963;23;20636;-76
2021/01/30 15:07:53;;;;;;;1.40;1.40;;;1.70;99.90;;;;;;6095001;23;20224;-76
2021/01/30 15:10:22;;;;;;;1.10;1.10;;;1.50;99.90;;;;;;6095001;23;20201;-73
2021/01/30 15:12:50;;;;;;;1.27;1.27;;;1.70;99.90;;;;;;6095258;23;20200;-72
2021/01/30 15:15:19;;;;;;;1.10;1.10;;;1.70;99.90;;;;;;6094889;23;20181;-74
2021/01/30 15:17:46;;;;;;;1.10;1.10;;;1.60;99.90;;;;;;6094507;23;20715;-76
2021/01/30 15:20:14;;;;;;;1.20;1.20;;;1.70;99.90;;;;;;6094918;23;20197;-75
2021/01/30 15:22:41;;;;;;;1.40;1.40;;;1.70;99.90;;;;;;6095651;23;20181;-74
2021/01/30 15:25:10;;;;;;;1.10;1.10;;;1.60;99.90;;;;;;6096627;23;20205;-74
2021/01/30 15:27:38;;;;;;;1.30;1.30;;;1.70;99.90;;;;;;6096126;23;20184;-72
2021/01/30 15:30:09;;;;;;;1.20;1.20;;;1.90;99.90;;;;;;6094479;23;20537;-72
2021/01/30 15:32:36;;;;;;;1.00;1.00;;;1.80;99.90;;;;;;6095115;23;20176;-75
2021/01/30 15:35:05;;;;;;;1.37;1.37;;;1.70;99.90;;;;;;6094882;23;20200;-72
2021/01/30 15:37:32;;;;;;;1.13;1.13;;;2.00;99.90;;;;;;6094801;23;20267;-72
2021/01/30 15:39:59;;;;;;;1.20;1.20;;;2.10;99.90;;;;;;6094472;23;20501;-75
2021/01/30 15:42:27;;;;;;;1.20;1.20;;;2.20;99.90;;;;;;6094858;23;20554;-76
2021/01/30 15:44:53;;;;;;;1.17;1.17;;;2.60;99.90;;;;;;6094965;23;20554;-76
2021/01/30 15:47:21;;;;;;;1.10;1.10;;;2.10;99.90;;;;;;6095027;23;20568;-75
2021/01/30 15:49:48;;;;;;;1.30;1.30;;;1.80;99.90;;;;;;6094928;23;20183;-75
2021/01/30 15:52:16;;;;;;;1.10;1.10;;;2.10;99.90;;;;;;6094937;23;20680;-72
2021/01/30 15:54:46;;;;;;;1.20;1.20;;;2.20;99.90;;;;;;6094872;23;20201;-71
2021/01/30 15:57:12;;;;;;;1.40;1.40;;;2.20;99.90;;;;;;6095356;23;20681;-74
2021/01/30 15:59:40;;;;;;;1.10;1.10;;;1.90;99.90;;;;;;6094875;23;20176;-75
2021/01/30 16:02:07;;;;;;;1.00;1.00;;;2.10;99.90;;;;;;6095265;23;20204;-77
2021/01/30 16:04:34;;;;;;;1.20;1.20;;;2.10;99.90;;;;;;6094724;23;20172;-74
2021/01/30 16:07:01;;;;;;;1.10;1.10;;;2.30;99.90;;;;;;6095275;23;20181;-76
2021/01/30 16:09:28;;;;;;;1.00;1.00;;;2.30;99.90;;;;;;6094969;23;20161;-75
2021/01/30 16:11:55;;;;;;;1.20;1.20;;;2.00;99.90;;;;;;6094750;23;20200;-74
2021/01/30 16:14:22;;;;;;;1.00;1.00;;;1.50;99.90;;;;;;6094834;23;20251;-75
2021/01/30 16:16:49;;;;;;;1.20;1.20;;;2.20;99.90;;;;;;6095110;23;20176;-72
2021/01/30 16:19:17;;;;;;;1.20;1.20;;;2.40;99.90;;;;;;6095703;23;20180;-76
2021/01/30 16:21:44;;;;;;;1.30;1.30;;;2.50;99.90;;;;;;6096577;23;20207;-78
2021/01/30 16:24:12;;;;;;;1.10;1.10;;;2.40;99.90;;;;;;6097156;23;20180;-77
2021/01/30 16:26:40;;;;;;;1.20;1.20;;;2.50;99.90;;;;;;6097401;23;20180;-76
2021/01/30 16:29:08;;;;;;;1.20;1.20;;;2.40;99.90;;;;;;6096558;23;20212;-76
2021/01/30 16:31:36;;;;;;;1.10;1.10;;;2.30;99.90;;;;;;6096037;23;20338;-72
2021/01/30 16:34:03;;;;;;;1.27;1.27;;;2.20;99.90;;;;;;6096571;23;20185;-71
2021/01/30 16:36:30;;;;;;;1.30;1.30;;;2.20;99.90;;;;;;6097020;23;20180;-72
2021/01/30 16:38:57;;;;;;;1.20;1.20;;;2.10;99.90;;;;;;6096980;23;20181;-70
2021/01/30 16:41:24;;;;;;;1.20;1.20;;;1.80;99.90;;;;;;6095840;23;20204;-75
2021/01/30 16:43:51;;;;;;;1.30;1.30;;;2.10;99.90;;;;;;6096436;23;20177;-70
2021/01/30 16:46:18;;;;;;;1.30;1.30;;;2.00;99.90;;;;;;6096868;23;20215;-74
2021/01/30 16:48:45;;;;;;;1.07;1.07;;;2.10;99.90;;;;;;6096958;23;20251;-71
2021/01/30 16:51:13;;;;;;;1.23;1.23;;;2.00;99.90;;;;;;6097174;23;20228;-71
2021/01/30 16:53:40;;;;;;;1.30;1.30;;;1.90;99.90;;;;;;6097214;23;20208;-73
2021/01/30 16:56:07;;;;;;;1.30;1.30;;;1.70;99.90;;;;;;6096589;23;20739;-70
2021/01/30 16:58:34;;;;;;;1.00;1.00;;;1.90;99.90;;;;;;6097001;23;20180;-70
2021/01/30 17:01:01;;;;;;;1.20;1.20;;;2.00;99.90;;;;;;6096945;23;20204;-70
2021/01/30 17:03:28;;;;;;;1.20;1.20;;;1.80;99.90;;;;;;6096938;23;20176;-73
2021/01/30 17:05:55;;;;;;;1.40;1.40;;;1.90;99.90;;;;;;6096094;23;20180;-71
2021/01/30 17:08:23;;;;;;;1.30;1.30;;;1.80;99.90;;;;;;6095201;23;21108;-74
2021/01/30 17:10:50;;;;;;;1.30;1.30;;;1.70;99.90;;;;;;6096499;23;20548;-74
2021/01/30 17:13:18;;;;;;;1.10;1.10;;;1.80;99.90;;;;;;6096968;23;20184;-76
2021/01/30 17:15:45;;;;;;;1.10;1.10;;;1.90;99.90;;;;;;6096915;23;20201;-74
2021/01/30 17:18:12;;;;;;;1.20;1.20;;;2.20;99.90;;;;;;6096401;23;20180;-74
2021/01/30 17:20:39;;;;;;;1.30;1.30;;;2.30;99.90;;;;;;6096794;23;20276;-74
2021/01/30 17:23:06;;;;;;;1.20;1.20;;;2.20;99.90;;;;;;6096469;23;20228;-74
2021/01/30 17:25:34;;;;;;;1.30;1.30;;;2.30;99.90;;;;;;6096798;23;20185;-76
2021/01/30 17:28:02;;;;;;;1.30;1.30;;;2.30;99.90;;;;;;6096605;23;20177;-74
2021/01/30 17:30:29;;;;;;;1.10;1.10;;;2.50;99.90;;;;;;6096187;23;20240;-77
2021/01/30 17:32:57;;;;;;;1.30;1.30;;;2.40;99.90;;;;;;6096488;23;20171;-72
2021/01/30 17:35:29;;;;;;;1.10;1.10;;;2.30;99.90;;;;;;6096727;23;20578;-71
2021/01/30 17:37:57;;;;;;;1.10;1.10;;;2.40;99.90;;;;;;6096552;23;20177;-71
2021/01/30 17:40:24;;;;;;;1.23;1.23;;;2.40;99.90;;;;;;6096671;23;20251;-74
2021/01/30 17:42:53;;;;;;;1.10;1.10;;;2.40;99.90;;;;;;6093518;23;20272;-75
2021/01/30 17:45:20;;;;;;;1.07;1.07;;;2.30;99.90;;;;;;6095774;23;20161;-76
2021/01/30 17:47:48;;;;;;;1.10;1.10;;;2.40;99.90;;;;;;6095612;23;20181;-75
2021/01/30 17:50:16;;;;;;;1.00;1.00;;;2.60;99.90;;;;;;6096247;23;20197;-75
2021/01/30 17:52:43;;;;;;;1.20;1.20;;;2.40;99.90;;;;;;6096225;23;20185;-74
2021/01/30 17:55:11;;;;;;;1.33;1.33;;;2.20;99.90;;;;;;6096295;23;20200;-76
2021/01/30 17:57:39;;;;;;;1.20;1.20;;;2.20;99.90;;;;;;6096041;23;20243;-74
2021/01/30 18:00:10;;;;;;;1.10;1.10;;;2.40;99.90;;;;;;6095822;23;20190;-74
2021/01/30 18:02:37;;;;;;;1.30;1.30;;;2.30;99.90;;;;;;6096122;23;20161;-74
2021/01/30 18:05:06;;;;;;;1.10;1.10;;;2.30;99.90;;;;;;6095857;23;20628;-74
2021/01/30 18:07:32;;;;;;;1.20;1.20;;;2.40;99.90;;;;;;6096243;23;20181;-74
2021/01/30 18:09:59;;;;;;;1.30;1.30;;;2.40;99.90;;;;;;6095505;23;20181;-76
2021/01/30 18:12:27;;;;;;;1.20;1.20;;;;;;;;;;6095845;23;20231;-74
2021/01/30 18:14:53;;;;;;;1.10;1.10;;;2.40;99.90;;;;;;6096125;23;20256;-74
2021/01/30 18:17:21;;;;;;;1.30;1.30;;;2.50;99.90;;;;;;6095864;23;20183;-76
2021/01/30 18:19:49;;;;;;;1.30;1.30;;;2.50;99.90;;;;;;6095991;23;20203;-76
2021/01/30 18:22:16;;;;;;;1.10;1.10;;;2.60;99.90;;;;;;6096077;23;20520;-74
2021/01/30 18:24:51;;;;;;;1.20;1.20;;;2.50;99.90;;;;;;6095522;23;20466;-75
2021/01/30 18:27:19;;;;;;;1.23;1.23;;;2.60;99.90;;;;;;6095996;23;20160;-74
2021/01/30 18:29:46;;;;;;;1.10;1.10;;;2.60;99.90;;;;;;6095747;23;20161;-74
2021/01/30 18:32:13;;;;;;;1.20;1.20;;;;;;;;;;6183874;22;20198;-79
2021/01/30 18:34:41;;;;;;;1.20;1.20;;;2.50;99.90;;;;;;6215192;23;20189;-79
2021/01/30 18:37:08;;;;;;;1.10;1.10;;;2.50;99.90;;;;;;6217123;23;20225;-81
2021/01/30 18:39:35;;;;;;;1.10;1.10;;;2.50;99.90;;;;;;6216715;23;20232;-80
2021/01/30 18:42:01;;;;;;;1.10;1.10;;;2.50;99.90;;;;;;6216485;23;20198;-80
2021/01/30 18:44:29;;;;;;;1.33;1.33;;;;;;;;;;6216091;23;20186;-79
2021/01/30 18:46:55;;;;;;;1.17;1.17;;;2.50;99.90;;;;;;6216882;23;20178;-80
2021/01/30 18:49:22;;;;;;;1.07;1.07;;;2.50;99.90;;;;;;6216622;23;20180;-80
2021/01/30 18:51:50;;;;;;;1.10;1.10;;;2.60;99.90;;;;;;6216833;23;20194;-79
2021/01/30 18:54:17;;;;;;;1.10;1.10;;;2.60;99.90;;;;;;6216897;23;20178;-81
2021/01/30 18:56:44;;;;;;;1.27;1.27;;;2.70;99.90;;;;;;6217684;23;20240;-80
2021/01/30 18:59:11;;;;;;;1.10;1.10;;;2.80;99.90;;;;;;6217003;23;20178;-80
2021/01/30 19:01:38;;;;;;;1.30;1.30;;;2.60;99.90;;;;;;6217595;23;20409;-81
2021/01/30 19:04:05;;;;;;;1.30;1.30;;;2.60;99.90;;;;;;6218477;23;20178;-80
2021/01/30 19:06:32;;;;;;;1.27;1.27;;;2.60;99.90;;;;;;6217972;23;20174;-80
2021/01/30 19:09:00;;;;;;;1.30;1.30;;;2.40;99.90;;;;;;6215570;23;20723;-80
2021/01/30 19:11:30;;;;;;;1.20;1.20;;;2.40;99.90;;;;;;6215861;23;20202;-82
2021/01/30 19:14:00;;;;;;;1.00;1.00;;;2.40;99.90;;;;;;6217828;23;20182;-78
2021/01/30 19:16:28;;;;;;;1.10;1.10;;;2.40;99.90;;;;;;6217386;23;20194;-78
2021/01/30 19:18:55;;;;;;;1.10;1.10;;;2.30;99.90;;;;;;6217787;23;20184;-79
2021/01/30 19:21:23;;;;;;;1.20;1.20;;;2.30;99.90;;;;;;6220508;23;20233;-79
2021/01/30 19:23:50;;;;;;;1.40;1.40;;;2.30;99.90;;;;;;6222698;23;20178;-79
2021/01/30 19:26:18;;;;;;;1.20;1.20;;;2.40;99.90;;;;;;6219094;23;20258;-77
2021/01/30 19:28:45;;;;;;;1.20;1.20;;;2.30;99.90;;;;;;6219280;23;20174;-78
2021/01/30 19:31:12;;;;;;;1.20;1.20;;;2.30;99.90;;;;;;6221427;23;20233;-79
2021/01/30 19:33:38;;;;;;;1.20;1.20;;;2.40;99.90;;;;;;6222138;23;20182;-79
2021/01/30 19:36:08;;;;;;;1.17;1.17;;;2.50;99.90;;;;;;6222713;23;20190;-79
2021/01/30 19:38:35;;;;;;;1.20;1.20;;;2.50;99.90;;;;;;6222643;23;20178;-80
2021/01/30 19:41:03;;;;;;;1.10;1.10;;;2.40;99.90;;;;;;6223957;23;20198;-80